Time;durP1;ratioP1;P1;durP2;ratioP2;P2;SDS_P1;SDS_P2;PMS_P1;PMS_P2;Temp;Humidity;BMP_temperature;BMP_pressure;BME280_temperature;BME280_humidity;BME280_pressure;Samples;Min_cycle;Max_cycle;Signal;HPM_P1;HPM_P2
2021/08/13 00:00:25;;;;;;;20.87;15.00;;;18.20;99.90;;;;;;5142572;27;20222;-65
2021/08/13 00:02:53;;;;;;;21.57;15.70;;;18.20;99.90;;;;;;5133525;27;20266;-65
2021/08/13 00:05:23;;;;;;;22.70;15.30;;;18.20;99.90;;;;;;5137274;27;20185;-65
2021/08/13 00:07:51;;;;;;;20.10;15.07;;;18.20;99.90;;;;;;5142771;27;20201;-65
2021/08/13 00:10:19;;;;;;;25.30;16.03;;;18.10;99.90;;;;;;5141986;27;20182;-65
2021/08/13 00:12:48;;;;;;;23.10;14.80;;;18.10;99.90;;;;;;5119883;27;20246;-65
2021/08/13 00:15:18;;;;;;;26.27;15.57;;;18.10;99.90;;;;;;5139966;27;20215;-65
2021/08/13 00:17:46;;;;;;;20.10;14.10;;;18.20;99.90;;;;;;5123676;27;20173;-65
2021/08/13 00:20:14;;;;;;;23.37;15.47;;;18.20;99.90;;;;;;5122768;27;20181;-65
2021/08/13 00:22:43;;;;;;;20.27;15.03;;;18.20;99.90;;;;;;5142207;27;20173;-65
2021/08/13 00:25:11;;;;;;;22.67;15.47;;;18.20;99.90;;;;;;5140709;27;20177;-65
2021/08/13 00:27:39;;;;;;;19.80;14.03;;;18.10;99.90;;;;;;5142218;28;20219;-65
2021/08/13 00:30:09;;;;;;;19.80;12.80;;;18.20;99.90;;;;;;5141250;28;20178;-65
2021/08/13 00:32:39;;;;;;;19.17;12.63;;;18.20;99.90;;;;;;5123753;28;20347;-65
2021/08/13 00:35:08;;;;;;;18.30;11.70;;;18.20;99.90;;;;;;5123247;28;20193;-65
2021/08/13 00:37:37;;;;;;;16.20;10.47;;;18.10;99.90;;;;;;5142388;28;20197;-65
2021/08/13 00:40:06;;;;;;;12.60;10.00;;;18.10;99.90;;;;;;5140961;28;20418;-65
2021/08/13 00:42:34;;;;;;;11.23;9.57;;;18.10;99.90;;;;;;5141959;28;20178;-65
2021/08/13 00:45:04;;;;;;;12.60;9.67;;;18.10;99.90;;;;;;5137676;28;20269;-65
2021/08/13 00:47:33;;;;;;;13.97;8.87;;;18.00;99.90;;;;;;5140789;28;20182;-65
2021/08/13 00:50:02;;;;;;;12.50;8.80;;;18.00;99.90;;;;;;5120278;28;20448;-65
2021/08/13 00:52:31;;;;;;;15.07;9.40;;;18.10;99.90;;;;;;5141913;28;20178;-66
2021/08/13 00:55:00;;;;;;;15.03;9.10;;;18.10;99.90;;;;;;5141937;28;20178;-65
2021/08/13 00:57:28;;;;;;;12.30;9.97;;;18.10;99.90;;;;;;5140676;28;20181;-65
2021/08/13 00:59:57;;;;;;;14.70;9.73;;;18.10;99.90;;;;;;5138390;28;20178;-65
2021/08/13 01:02:26;;;;;;;11.93;9.40;;;18.10;99.90;;;;;;5134544;28;20178;-65
2021/08/13 01:04:54;;;;;;;15.23;10.00;;;18.10;99.90;;;;;;5115220;28;20196;-65
2021/08/13 01:07:24;;;;;;;13.27;9.97;;;18.10;99.90;;;;;;5139009;28;20178;-65
2021/08/13 01:09:52;;;;;;;17.00;9.73;;;18.10;99.90;;;;;;5133861;28;20342;-65
2021/08/13 01:12:30;;;;;;;16.00;10.10;;;18.10;99.90;;;;;;5119619;28;20174;-66
2021/08/13 01:15:06;;;;;;;16.40;10.73;;;18.00;99.90;;;;;;5135878;28;20186;-65
2021/08/13 01:17:39;;;;;;;14.57;9.93;;;18.00;99.90;;;;;;5122818;28;20185;-65
2021/08/13 01:20:12;;;;;;;12.27;9.80;;;17.90;99.90;;;;;;5141051;28;20170;-65
2021/08/13 01:22:49;;;;;;;11.20;9.13;;;17.90;99.90;;;;;;5138134;27;20299;-65
2021/08/13 01:25:21;;;;;;;13.83;9.43;;;17.80;99.90;;;;;;5143230;27;20186;-65
2021/08/13 01:27:53;;;;;;;11.77;9.20;;;17.80;99.90;;;;;;5145036;27;20194;-65
2021/08/13 01:30:22;;;;;;;12.97;9.60;;;17.70;99.90;;;;;;5124434;27;20414;-65
2021/08/13 01:32:55;;;;;;;12.57;9.40;;;17.70;99.90;;;;;;5123766;27;20174;-65
2021/08/13 01:35:26;;;;;;;12.03;9.47;;;17.60;99.90;;;;;;5106084;27;20220;-65
2021/08/13 01:37:57;;;;;;;12.50;9.23;;;17.60;99.90;;;;;;5126474;27;20167;-65
2021/08/13 01:40:28;;;;;;;12.13;9.20;;;17.60;99.90;;;;;;5120376;27;20178;-65
2021/08/13 01:43:02;;;;;;;10.70;9.27;;;17.50;99.90;;;;;;5141394;27;20194;-65
2021/08/13 01:45:33;;;;;;;16.07;9.47;;;17.40;99.90;;;;;;5124252;28;20220;-65
2021/08/13 01:48:05;;;;;;;14.60;9.43;;;17.40;99.90;;;;;;5105729;28;20177;-65
2021/08/13 01:50:33;;;;;;;11.97;8.83;;;17.30;99.90;;;;;;5123456;28;20203;-65
2021/08/13 01:53:03;;;;;;;11.00;9.60;;;17.30;99.90;;;;;;5123726;28;20178;-65
2021/08/13 01:55:32;;;;;;;10.90;8.73;;;17.20;99.90;;;;;;5123073;28;20408;-65
2021/08/13 01:58:01;;;;;;;12.70;9.50;;;17.20;99.90;;;;;;5121912;28;20333;-65
2021/08/13 02:00:29;;;;;;;10.83;9.00;;;17.20;99.90;;;;;;5122891;28;20180;-65
2021/08/13 02:03:00;;;;;;;13.27;9.73;;;17.10;99.90;;;;;;5122683;28;20179;-65
2021/08/13 02:05:31;;;;;;;14.33;10.03;;;17.10;99.90;;;;;;5118967;28;20193;-65
2021/08/13 02:08:02;;;;;;;11.53;9.33;;;17.00;99.90;;;;;;5105441;28;20180;-65
2021/08/13 02:10:31;;;;;;;13.27;9.63;;;17.00;99.90;;;;;;5121047;28;20200;-65
2021/08/13 02:13:00;;;;;;;11.30;9.43;;;16.90;99.90;;;;;;5123037;28;20205;-65
2021/08/13 02:15:39;;;;;;;12.97;9.90;;;16.90;99.90;;;;;;5122936;28;20179;-65
2021/08/13 02:18:12;;;;;;;16.07;10.23;;;16.80;99.90;;;;;;5123274;28;20201;-65
2021/08/13 02:20:45;;;;;;;13.83;10.63;;;16.80;99.90;;;;;;5122244;28;20559;-65
2021/08/13 02:23:15;;;;;;;13.27;9.73;;;16.80;99.90;;;;;;5105239;28;20254;-65
2021/08/13 02:25:43;;;;;;;14.57;9.83;;;16.90;99.90;;;;;;5123151;28;20405;-65
2021/08/13 02:28:11;;;;;;;12.13;9.33;;;16.90;99.90;;;;;;5122973;28;20453;-65
2021/08/13 02:30:40;;;;;;;10.83;9.07;;;16.90;99.90;;;;;;5122964;28;20191;-66
2021/08/13 02:33:08;;;;;;;11.47;9.07;;;16.90;99.90;;;;;;5121360;28;20341;-65
2021/08/13 02:35:37;;;;;;;11.17;9.07;;;16.90;99.90;;;;;;5121869;28;20182;-65
2021/08/13 02:38:12;;;;;;;10.77;7.87;;;16.80;99.90;;;;;;5123326;28;20182;-66
2021/08/13 02:40:54;;;;;;;12.40;8.57;;;16.80;99.90;;;;;;5121793;28;20403;-65
2021/08/13 02:43:27;;;;;;;12.70;8.30;;;16.80;99.90;;;;;;5104925;28;20334;-66
2021/08/13 02:45:59;;;;;;;11.87;9.57;;;16.70;99.90;;;;;;5122765;28;20219;-65
2021/08/13 02:48:28;;;;;;;13.17;9.27;;;16.60;99.90;;;;;;5104838;28;20183;-65
2021/08/13 02:50:57;;;;;;;13.93;9.50;;;16.60;99.90;;;;;;5104010;28;20203;-65
2021/08/13 02:53:27;;;;;;;14.00;9.50;;;16.60;99.90;;;;;;5122955;28;20178;-65
2021/08/13 02:56:01;;;;;;;14.20;8.83;;;16.60;99.90;;;;;;5120840;28;20221;-68
2021/08/13 02:58:35;;;;;;;11.40;9.33;;;16.50;99.90;;;;;;5119090;28;20182;-68
2021/08/13 03:01:03;;;;;;;12.20;9.63;;;16.50;99.90;;;;;;5120615;28;20319;-67
2021/08/13 03:03:34;;;;;;;11.13;8.80;;;16.50;99.90;;;;;;5103767;28;20186;-68
2021/08/13 03:06:04;;;;;;;12.20;8.43;;;16.50;99.90;;;;;;5121825;28;20178;-68
2021/08/13 03:08:34;;;;;;;14.33;8.30;;;16.50;99.90;;;;;;5087160;28;20220;-68
2021/08/13 03:11:05;;;;;;;13.67;9.03;;;16.40;99.90;;;;;;5115049;28;20346;-68
2021/08/13 03:13:34;;;;;;;11.93;8.43;;;16.40;99.90;;;;;;5118013;28;20171;-68
2021/08/13 03:16:03;;;;;;;12.43;8.00;;;16.40;99.90;;;;;;5121846;28;20460;-68
2021/08/13 03:18:31;;;;;;;10.70;8.43;;;16.40;99.90;;;;;;5121841;28;20183;-68
2021/08/13 03:21:00;;;;;;;10.07;8.10;;;16.30;99.90;;;;;;5121869;28;20250;-68
2021/08/13 03:23:28;;;;;;;8.97;7.50;;;16.30;99.90;;;;;;5121930;28;20181;-68
2021/08/13 03:25:58;;;;;;;12.13;8.10;;;16.30;99.90;;;;;;5121787;28;20194;-68
2021/08/13 03:28:27;;;;;;;10.07;7.57;;;16.30;99.90;;;;;;5121583;28;20355;-68
2021/08/13 03:30:55;;;;;;;13.60;8.30;;;16.20;99.90;;;;;;5103754;28;20338;-68
2021/08/13 03:33:24;;;;;;;11.77;8.20;;;16.20;99.90;;;;;;5121176;28;20186;-68
2021/08/13 03:35:52;;;;;;;11.70;8.13;;;16.10;99.90;;;;;;5121541;28;20178;-68
2021/08/13 03:38:20;;;;;;;10.33;8.17;;;16.00;99.90;;;;;;5121963;28;20181;-68
2021/08/13 03:40:48;;;;;;;13.53;9.07;;;16.00;99.90;;;;;;5121789;28;20175;-68
2021/08/13 03:43:18;;;;;;;14.40;8.40;;;15.90;99.90;;;;;;5120375;28;20187;-68
2021/08/13 03:45:46;;;;;;;13.67;8.60;;;15.80;99.90;;;;;;5121723;28;20226;-68
2021/08/13 03:48:15;;;;;;;13.33;9.00;;;15.80;99.90;;;;;;5118783;28;20443;-68
2021/08/13 03:50:43;;;;;;;13.63;9.90;;;15.70;99.90;;;;;;5120700;28;20206;-68
2021/08/13 03:53:11;;;;;;;13.67;9.43;;;15.70;99.90;;;;;;5120614;28;20254;-68
2021/08/13 03:55:39;;;;;;;13.97;9.60;;;15.70;99.90;;;;;;5121255;28;20267;-68
2021/08/13 03:58:08;;;;;;;10.47;8.77;;;15.70;99.90;;;;;;5121022;28;20310;-68
2021/08/13 04:00:37;;;;;;;12.13;8.20;;;15.70;99.90;;;;;;5120984;28;20175;-68
2021/08/13 04:03:05;;;;;;;10.73;8.60;;;15.70;99.90;;;;;;5102010;28;20178;-67
2021/08/13 04:05:34;;;;;;;12.00;7.90;;;15.70;99.90;;;;;;5120172;28;20175;-68
2021/08/13 04:08:02;;;;;;;9.03;7.97;;;15.70;99.90;;;;;;5103429;28;20323;-68
2021/08/13 04:10:30;;;;;;;10.97;8.07;;;15.70;99.90;;;;;;5121184;28;20198;-68
2021/08/13 04:13:24;;;;;;;10.27;7.63;;;15.60;99.90;;;;;;5119117;28;20254;-68
2021/08/13 04:15:54;;;;;;;9.80;7.00;;;15.60;99.90;;;;;;5103545;28;20173;-68
2021/08/13 04:18:23;;;;;;;11.47;7.17;;;15.60;99.90;;;;;;5101042;28;20353;-68
2021/08/13 04:20:51;;;;;;;8.53;6.90;;;15.60;99.90;;;;;;5121600;28;20311;-68
2021/08/13 04:23:19;;;;;;;7.97;6.27;;;15.60;99.90;;;;;;5120616;28;20178;-68
2021/08/13 04:25:47;;;;;;;8.40;5.97;;;15.70;99.90;;;;;;5121368;28;20189;-68
2021/08/13 04:28:15;;;;;;;9.33;6.20;;;15.80;99.90;;;;;;5119174;28;20175;-68
2021/08/13 04:30:44;;;;;;;7.07;6.23;;;15.80;99.90;;;;;;5102835;28;20392;-68
2021/08/13 04:33:14;;;;;;;7.83;6.50;;;15.80;99.90;;;;;;5120173;28;20307;-68
2021/08/13 04:35:42;;;;;;;7.47;6.30;;;15.80;99.90;;;;;;5121082;28;20183;-68
2021/08/13 04:38:11;;;;;;;7.00;6.13;;;15.90;99.90;;;;;;5120879;28;20182;-68
2021/08/13 04:40:39;;;;;;;9.57;6.87;;;15.90;99.90;;;;;;5103594;28;20195;-69
2021/08/13 04:43:07;;;;;;;8.47;6.17;;;15.90;99.90;;;;;;5119826;28;20354;-67
2021/08/13 04:45:35;;;;;;;10.53;6.30;;;16.00;99.90;;;;;;5120412;28;20234;-68
2021/08/13 04:48:04;;;;;;;6.33;5.73;;;16.00;99.90;;;;;;5121247;28;20175;-68
2021/08/13 04:50:33;;;;;;;7.97;6.33;;;16.00;99.90;;;;;;5120784;28;20202;-68
2021/08/13 04:53:02;;;;;;;9.37;6.50;;;16.00;99.90;;;;;;5118591;28;20345;-68
2021/08/13 04:55:30;;;;;;;8.50;6.97;;;16.00;99.90;;;;;;5119737;28;20183;-68
2021/08/13 04:57:58;;;;;;;7.07;6.33;;;16.00;99.90;;;;;;5114055;28;20190;-68
2021/08/13 05:00:26;;;;;;;8.80;6.90;;;16.00;99.90;;;;;;5124337;28;20171;-68
2021/08/13 05:02:55;;;;;;;10.67;7.00;;;16.00;99.90;;;;;;5123730;28;20330;-68
2021/08/13 05:05:24;;;;;;;7.40;6.50;;;16.00;99.90;;;;;;5123628;28;20174;-68
2021/08/13 05:07:54;;;;;;;8.13;7.13;;;16.00;99.90;;;;;;5124560;28;20178;-68
2021/08/13 05:10:22;;;;;;;10.57;6.60;;;16.10;99.90;;;;;;5106026;28;20401;-68
2021/08/13 05:12:51;;;;;;;11.93;6.63;;;16.10;99.90;;;;;;5105611;28;20307;-68
2021/08/13 05:15:19;;;;;;;7.50;6.30;;;16.10;99.90;;;;;;5106621;28;20185;-68
2021/08/13 05:17:48;;;;;;;8.43;6.83;;;16.10;99.90;;;;;;5104575;28;20430;-68
2021/08/13 05:20:17;;;;;;;8.93;6.83;;;16.10;99.90;;;;;;5124275;28;20288;-68
2021/08/13 05:22:45;;;;;;;10.00;7.13;;;16.10;99.90;;;;;;5115358;28;20324;-68
2021/08/13 05:25:16;;;;;;;8.27;6.90;;;16.20;99.90;;;;;;5124662;28;20318;-68
2021/08/13 05:27:46;;;;;;;8.43;7.53;;;16.20;99.90;;;;;;5124108;28;20280;-68
2021/08/13 05:30:15;;;;;;;10.47;7.30;;;16.20;99.90;;;;;;5124773;28;20262;-68
2021/08/13 05:32:45;;;;;;;13.03;7.60;;;16.20;99.90;;;;;;5122345;28;20184;-68
2021/08/13 05:35:13;;;;;;;10.23;7.43;;;16.30;99.90;;;;;;5101862;28;20361;-68
2021/08/13 05:37:41;;;;;;;9.57;7.17;;;16.30;99.90;;;;;;5123864;28;20438;-68
2021/08/13 05:40:11;;;;;;;12.97;8.43;;;16.30;99.90;;;;;;5124558;28;20175;-68
2021/08/13 05:42:40;;;;;;;13.57;7.73;;;16.30;99.90;;;;;;5105301;28;20183;-68
2021/08/13 05:45:09;;;;;;;11.23;7.63;;;16.30;99.90;;;;;;5123841;28;20206;-68
2021/08/13 05:47:39;;;;;;;12.50;8.47;;;16.30;99.90;;;;;;5122576;28;20199;-68
2021/08/13 05:50:09;;;;;;;13.97;8.03;;;16.30;99.90;;;;;;5122832;28;20174;-68
2021/08/13 05:52:37;;;;;;;14.73;7.90;;;16.40;99.90;;;;;;5122557;28;20187;-68
2021/08/13 05:55:06;;;;;;;10.17;7.93;;;16.40;99.90;;;;;;5105796;28;20175;-68
2021/08/13 05:57:34;;;;;;;13.20;8.50;;;16.50;99.90;;;;;;5123806;28;20182;-68
2021/08/13 06:00:06;;;;;;;11.03;8.30;;;16.50;99.90;;;;;;5124134;28;20180;-68
2021/08/13 06:02:35;;;;;;;10.87;8.23;;;16.50;99.90;;;;;;5120880;28;20195;-68
2021/08/13 06:05:04;;;;;;;10.70;8.57;;;16.50;99.90;;;;;;5124206;28;20196;-68
2021/08/13 06:07:32;;;;;;;14.97;8.33;;;16.60;99.90;;;;;;5123624;28;20175;-68
2021/08/13 06:10:00;;;;;;;11.00;8.80;;;16.60;99.90;;;;;;5123973;28;20263;-68
2021/08/13 06:12:29;;;;;;;11.67;8.87;;;16.60;99.90;;;;;;5100205;28;20519;-68
2021/08/13 06:14:57;;;;;;;11.90;8.40;;;16.60;99.90;;;;;;5124728;28;20199;-68
2021/08/13 06:17:27;;;;;;;12.97;9.47;;;16.70;99.90;;;;;;5123582;28;20217;-68
2021/08/13 06:19:55;;;;;;;13.07;9.70;;;16.70;99.90;;;;;;5123014;28;20183;-68
2021/08/13 06:22:23;;;;;;;12.53;9.43;;;16.70;99.90;;;;;;5124747;28;20171;-69
2021/08/13 06:24:51;;;;;;;15.60;9.70;;;16.80;99.90;;;;;;5123645;28;20178;-68
2021/08/13 06:27:20;;;;;;;15.90;9.90;;;16.90;99.90;;;;;;5124053;28;20214;-68
2021/08/13 06:29:48;;;;;;;16.37;11.07;;;16.90;99.90;;;;;;5123464;28;20175;-68
2021/08/13 06:32:18;;;;;;;14.97;10.83;;;17.00;99.90;;;;;;5124077;28;20564;-68
2021/08/13 06:34:48;;;;;;;17.30;10.60;;;17.00;99.90;;;;;;5105075;28;20184;-68
2021/08/13 06:37:16;;;;;;;16.67;10.27;;;17.10;99.90;;;;;;5119575;28;20171;-68
2021/08/13 06:39:44;;;;;;;16.23;9.60;;;17.10;99.90;;;;;;5101880;28;20229;-68
2021/08/13 06:42:13;;;;;;;15.27;11.13;;;17.10;99.90;;;;;;5123975;28;20180;-66
2021/08/13 06:44:41;;;;;;;16.77;10.67;;;17.20;99.90;;;;;;5124130;28;20194;-68
2021/08/13 06:47:09;;;;;;;20.57;11.77;;;17.20;99.90;;;;;;5105204;28;20254;-68
2021/08/13 06:49:38;;;;;;;18.03;11.47;;;17.30;99.90;;;;;;5123078;28;20286;-68
2021/08/13 06:52:10;;;;;;;14.93;11.27;;;17.40;99.90;;;;;;5124235;28;20194;-68
2021/08/13 06:54:39;;;;;;;17.37;11.33;;;17.50;99.90;;;;;;5123540;28;20216;-68
2021/08/13 06:57:07;;;;;;;18.17;11.20;;;17.50;99.90;;;;;;5123180;28;20188;-68
2021/08/13 06:59:36;;;;;;;18.37;11.27;;;17.60;99.90;;;;;;5115604;28;20181;-68
2021/08/13 07:02:08;;;;;;;13.90;10.00;;;17.70;99.90;;;;;;5121992;28;20198;-68
2021/08/13 07:04:36;;;;;;;16.60;10.70;;;17.80;99.90;;;;;;5105379;28;20287;-68
2021/08/13 07:07:04;;;;;;;17.63;10.63;;;17.80;99.90;;;;;;5123521;28;20177;-68
2021/08/13 07:09:34;;;;;;;17.27;11.07;;;17.90;99.90;;;;;;5122922;28;20189;-68
2021/08/13 07:12:02;;;;;;;14.50;10.10;;;18.00;99.90;;;;;;5105433;28;20286;-68
2021/08/13 07:14:31;;;;;;;10.87;9.50;;;18.10;99.90;;;;;;5122572;28;20208;-68
2021/08/13 07:16:59;;;;;;;16.97;10.13;;;18.40;99.90;;;;;;5122816;28;20183;-68
2021/08/13 07:19:31;;;;;;;14.87;9.97;;;18.30;99.90;;;;;;5104538;28;20169;-68
2021/08/13 07:22:00;;;;;;;12.30;9.20;;;18.20;99.90;;;;;;5121988;28;20179;-69
2021/08/13 07:24:28;;;;;;;14.57;9.60;;;18.40;99.90;;;;;;5120077;28;20245;-68
2021/08/13 07:26:58;;;;;;;10.93;7.57;;;18.60;99.90;;;;;;5122987;28;20365;-68
2021/08/13 07:29:26;;;;;;;13.77;8.63;;;18.70;99.90;;;;;;5123088;28;20182;-69
2021/08/13 07:31:56;;;;;;;11.77;8.33;;;18.80;99.90;;;;;;5121973;28;20186;-68
2021/08/13 07:34:25;;;;;;;8.50;7.40;;;18.80;99.90;;;;;;5120229;28;20180;-68
2021/08/13 07:36:53;;;;;;;10.20;7.33;;;19.00;99.90;;;;;;5122685;28;20370;-68
2021/08/13 07:39:37;;;;;;;8.90;7.07;;;19.20;99.90;;;;;;5100083;28;20171;-69
2021/08/13 07:42:06;;;;;;;11.20;7.53;;;19.50;99.90;;;;;;5123361;28;20186;-69
2021/08/13 07:44:35;;;;;;;7.57;6.10;;;19.50;99.90;;;;;;5122066;28;20240;-69
2021/08/13 07:47:11;;;;;;;6.23;5.57;;;19.60;99.90;;;;;;5120088;28;20218;-69
2021/08/13 07:49:40;;;;;;;10.33;5.40;;;19.80;99.90;;;;;;5122467;28;20178;-69
2021/08/13 07:52:08;;;;;;;5.00;4.50;;;19.90;99.90;;;;;;5122343;28;20199;-68
2021/08/13 07:54:38;;;;;;;4.93;4.50;;;19.90;99.90;;;;;;5122094;28;20314;-68
2021/08/13 07:57:08;;;;;;;5.10;4.60;;;20.00;99.90;;;;;;5121817;28;20209;-68
2021/08/13 07:59:37;;;;;;;9.33;5.07;;;19.90;99.90;;;;;;5122257;28;20190;-68
2021/08/13 08:02:06;;;;;;;5.50;4.53;;;19.90;99.90;;;;;;5120340;28;20197;-68
2021/08/13 08:04:34;;;;;;;8.27;4.40;;;19.80;99.90;;;;;;5109552;28;20189;-68
2021/08/13 08:07:03;;;;;;;6.07;4.33;;;19.80;99.90;;;;;;5119835;27;20181;-68
2021/08/13 08:09:31;;;;;;;6.83;4.17;;;19.90;99.90;;;;;;5101019;28;20178;-68
2021/08/13 08:12:00;;;;;;;5.63;4.30;;;20.10;99.90;;;;;;5099224;28;21348;-68
2021/08/13 08:14:30;;;;;;;7.47;4.27;;;20.00;99.90;;;;;;5119587;28;20334;-68
2021/08/13 08:16:58;;;;;;;7.13;3.93;;;19.90;99.90;;;;;;5122729;28;20181;-69
2021/08/13 08:19:26;;;;;;;5.20;4.13;;;19.90;99.90;;;;;;5122039;27;20186;-68
2021/08/13 08:21:55;;;;;;;5.73;4.30;;;20.00;99.90;;;;;;5124529;27;20198;-68
2021/08/13 08:24:23;;;;;;;5.17;4.17;;;20.20;99.90;;;;;;5102327;28;20175;-68
2021/08/13 08:26:51;;;;;;;10.47;4.47;;;20.30;99.90;;;;;;5122548;28;20179;-68
2021/08/13 08:29:20;;;;;;;6.93;4.70;;;20.40;99.90;;;;;;5121752;28;20182;-68
2021/08/13 08:31:49;;;;;;;5.33;4.83;;;20.50;99.90;;;;;;5126777;27;20186;-68
2021/08/13 08:34:20;;;;;;;5.67;4.30;;;20.60;99.90;;;;;;5116950;28;20171;-68
2021/08/13 08:36:49;;;;;;;5.53;4.13;;;20.70;99.90;;;;;;5117158;28;20221;-68
2021/08/13 08:39:17;;;;;;;6.27;4.30;;;20.60;99.90;;;;;;5102208;28;20198;-68
2021/08/13 08:41:45;;;;;;;4.63;4.23;;;20.60;99.90;;;;;;5117271;28;20197;-68
2021/08/13 08:44:14;;;;;;;6.00;4.47;;;20.70;99.90;;;;;;5119014;28;20175;-69
2021/08/13 08:46:45;;;;;;;6.33;4.70;;;20.70;99.90;;;;;;5116057;28;20218;-68
2021/08/13 08:49:19;;;;;;;4.33;3.90;;;20.80;99.90;;;;;;5118520;28;20251;-68
2021/08/13 08:51:48;;;;;;;4.27;3.87;;;21.00;99.90;;;;;;5102499;28;20171;-68
2021/08/13 08:54:16;;;;;;;4.93;4.43;;;21.10;99.90;;;;;;5123400;28;20201;-68
2021/08/13 08:56:45;;;;;;;6.60;4.57;;;21.10;99.90;;;;;;5121488;28;20175;-69
2021/08/13 08:59:34;;;;;;;5.93;4.60;;;21.10;99.90;;;;;;5116725;28;20431;-68
2021/08/13 09:02:02;;;;;;;5.30;4.23;;;21.00;99.90;;;;;;5117420;28;20431;-68
2021/08/13 09:04:32;;;;;;;6.20;4.20;;;21.10;99.90;;;;;;5118570;28;20175;-69
2021/08/13 09:07:00;;;;;;;3.97;3.60;;;21.20;99.90;;;;;;5109839;28;21414;-68
2021/08/13 09:09:29;;;;;;;7.30;3.70;;;21.30;99.90;;;;;;5116018;28;20203;-68
2021/08/13 09:11:57;;;;;;;4.47;3.57;;;21.50;99.90;;;;;;5120701;28;20418;-68
2021/08/13 09:14:37;;;;;;;5.83;3.80;;;21.60;99.90;;;;;;5120791;28;20194;-68
2021/08/13 09:17:06;;;;;;;4.53;3.20;;;21.70;99.90;;;;;;5118147;28;20186;-68
2021/08/13 09:19:48;;;;;;;4.37;3.43;;;21.80;99.90;;;;;;5120917;28;20247;-68
2021/08/13 09:22:19;;;;;;;6.37;3.60;;;21.70;99.90;;;;;;5121838;28;20183;-68
2021/08/13 09:24:49;;;;;;;4.53;3.57;;;21.90;99.90;;;;;;5114896;28;20220;-68
2021/08/13 09:27:23;;;;;;;6.70;3.77;;;21.80;99.90;;;;;;5110883;28;20219;-68
2021/08/13 09:30:12;;;;;;;3.70;3.43;;;21.80;99.90;;;;;;5126419;28;20182;-68
2021/08/13 09:32:43;;;;;;;4.47;3.43;;;21.80;99.90;;;;;;5118114;28;20187;-68
2021/08/13 09:35:14;;;;;;;4.30;3.50;;;21.80;99.90;;;;;;5125457;28;20179;-69
2021/08/13 09:37:50;;;;;;;3.67;3.10;;;21.70;99.90;;;;;;5103649;28;20184;-68
2021/08/13 09:40:19;;;;;;;3.50;3.20;;;21.80;99.90;;;;;;5117567;28;20196;-66
2021/08/13 09:42:49;;;;;;;4.67;3.10;;;21.90;99.90;;;;;;5128569;28;20214;-68
2021/08/13 09:45:18;;;;;;;3.67;3.00;;;22.00;99.90;;;;;;5130797;27;20386;-68
2021/08/13 09:47:47;;;;;;;5.90;3.23;;;21.90;99.90;;;;;;5132739;27;20376;-69
2021/08/13 09:50:33;;;;;;;3.37;3.10;;;22.00;99.90;;;;;;5125354;28;20183;-68
2021/08/13 09:53:09;;;;;;;3.13;2.77;;;22.10;99.90;;;;;;5120616;28;20188;-65
2021/08/13 09:55:38;;;;;;;4.50;3.00;;;22.70;99.90;;;;;;5126336;27;20395;-65
2021/08/13 09:58:08;;;;;;;4.87;3.47;;;22.90;99.90;;;;;;5113437;28;20178;-65
2021/08/13 10:00:44;;;;;;;3.30;3.00;;;22.80;99.90;;;;;;5122096;28;20182;-64
2021/08/13 10:03:14;;;;;;;5.30;3.10;;;22.90;99.90;;;;;;5120722;28;20179;-65
2021/08/13 10:05:45;;;;;;;7.37;3.33;;;22.80;99.90;;;;;;5103098;28;20177;-65
2021/08/13 10:08:13;;;;;;;3.97;2.97;;;22.60;99.90;;;;;;5121702;28;20214;-65
2021/08/13 10:10:43;;;;;;;3.30;3.00;;;22.60;99.90;;;;;;5123314;28;20184;-65
2021/08/13 10:13:12;;;;;;;3.93;3.17;;;22.70;99.90;;;;;;5121102;28;20192;-64
2021/08/13 10:15:45;;;;;;;3.13;2.83;;;22.60;99.90;;;;;;5123784;28;20210;-65
2021/08/13 10:18:15;;;;;;;3.20;2.90;;;22.70;99.90;;;;;;5099456;28;20460;-65
2021/08/13 10:20:49;;;;;;;5.73;3.00;;;22.60;99.90;;;;;;5122557;28;20343;-65
2021/08/13 10:23:17;;;;;;;2.97;2.77;;;22.70;99.90;;;;;;5117814;28;20185;-65
2021/08/13 10:25:46;;;;;;;3.63;3.30;;;22.70;99.90;;;;;;5122911;28;20403;-65
2021/08/13 10:28:15;;;;;;;3.57;3.10;;;22.70;99.90;;;;;;5117368;28;20174;-64
2021/08/13 10:30:45;;;;;;;6.33;2.93;;;22.70;99.90;;;;;;5121050;28;20191;-65
2021/08/13 10:33:14;;;;;;;5.87;3.10;;;22.70;99.90;;;;;;5122478;28;20190;-65
2021/08/13 10:35:49;;;;;;;4.00;3.17;;;22.80;99.90;;;;;;5123506;28;20225;-65
2021/08/13 10:38:21;;;;;;;4.00;2.87;;;22.90;99.90;;;;;;5124250;28;20208;-65
2021/08/13 10:40:50;;;;;;;4.70;3.27;;;23.80;99.90;;;;;;5124173;28;20179;-65
2021/08/13 10:43:21;;;;;;;7.93;3.27;;;24.30;99.90;;;;;;5123898;28;20175;-65
2021/08/13 10:45:53;;;;;;;4.10;3.03;;;24.10;99.90;;;;;;5123451;28;20213;-64
2021/08/13 10:48:27;;;;;;;4.43;3.10;;;24.00;99.90;;;;;;5117149;28;20253;-65
2021/08/13 10:50:59;;;;;;;3.33;3.03;;;24.00;99.90;;;;;;5122167;28;20177;-65
2021/08/13 10:53:29;;;;;;;4.87;3.27;;;23.80;99.90;;;;;;5123848;28;20199;-64
2021/08/13 10:55:58;;;;;;;4.50;3.03;;;23.60;99.90;;;;;;5123124;28;20280;-64
2021/08/13 10:58:44;;;;;;;5.03;3.00;;;23.40;99.90;;;;;;5119408;28;20207;-64
2021/08/13 11:01:13;;;;;;;3.37;2.50;;;23.20;99.90;;;;;;5119712;28;20235;-65
2021/08/13 11:03:43;;;;;;;3.10;2.77;;;23.20;99.90;;;;;;5120775;28;20171;-64
2021/08/13 11:06:13;;;;;;;5.63;3.10;;;23.30;99.90;;;;;;5099369;28;20195;-64
2021/08/13 11:08:58;;;;;;;6.47;3.17;;;23.20;99.90;;;;;;5120717;28;20180;-64
2021/08/13 11:12:04;;;;;;;3.57;2.90;;;23.10;99.90;;;;;;5113453;27;20184;-64
2021/08/13 11:14:35;;;;;;;5.00;3.10;;;23.00;99.90;;;;;;5126328;27;20628;-64
2021/08/13 11:17:05;;;;;;;5.03;3.03;;;23.10;99.90;;;;;;5124981;27;20254;-65
2021/08/13 11:19:58;;;;;;;6.20;3.17;;;23.20;99.90;;;;;;5121793;28;20222;-64
2021/08/13 11:22:34;;;;;;;7.63;3.30;;;23.20;99.90;;;;;;5112902;28;20189;-64
2021/08/13 11:25:05;;;;;;;3.73;3.10;;;23.30;99.90;;;;;;5099425;28;20172;-65
2021/08/13 11:27:35;;;;;;;7.00;3.60;;;23.40;99.90;;;;;;5117102;28;20199;-68
2021/08/13 11:30:04;;;;;;;5.43;3.70;;;23.30;99.90;;;;;;5117756;28;20208;-68
2021/08/13 11:32:35;;;;;;;6.10;3.53;;;23.40;99.90;;;;;;5114608;28;20177;-68
2021/08/13 11:35:06;;;;;;;8.47;4.03;;;23.70;99.90;;;;;;5115962;27;20256;-69
2021/08/13 11:37:52;;;;;;;6.73;3.90;;;24.20;99.90;;;;;;5110925;28;20173;-68
2021/08/13 11:40:45;;;;;;;9.60;3.70;;;24.50;99.90;;;;;;5116664;28;20173;-69
2021/08/13 11:43:16;;;;;;;4.40;3.67;;;24.50;99.90;;;;;;5117360;27;20407;-69
2021/08/13 11:45:47;;;;;;;6.43;4.00;;;24.50;99.90;;;;;;5113463;28;20491;-68
2021/08/13 11:48:18;;;;;;;5.20;4.00;;;24.40;99.90;;;;;;5113347;28;20176;-68
2021/08/13 11:50:47;;;;;;;4.83;4.37;;;24.40;99.90;;;;;;5103751;28;20191;-68
2021/08/13 11:53:17;;;;;;;6.93;4.37;;;24.40;99.90;;;;;;5112643;28;20417;-68
2021/08/13 11:55:49;;;;;;;8.70;4.20;;;24.30;99.90;;;;;;5113610;28;20194;-68
2021/08/13 11:58:23;;;;;;;7.93;4.27;;;24.20;99.90;;;;;;5117253;28;20180;-69
2021/08/13 12:01:03;;;;;;;6.83;3.67;;;24.30;99.90;;;;;;5093630;28;20397;-69
2021/08/13 12:03:32;;;;;;;7.70;4.27;;;24.50;99.90;;;;;;5107766;28;20178;-68
2021/08/13 12:06:14;;;;;;;5.73;4.13;;;24.50;99.90;;;;;;5115308;27;20221;-69
2021/08/13 12:08:49;;;;;;;7.40;3.80;;;24.50;99.90;;;;;;5115056;28;20631;-68
2021/08/13 12:11:24;;;;;;;9.87;4.10;;;24.30;99.90;;;;;;5113914;28;20180;-68
2021/08/13 12:13:52;;;;;;;10.73;4.33;;;24.30;99.90;;;;;;5099110;27;20259;-68
2021/08/13 12:16:21;;;;;;;7.00;4.00;;;24.20;99.90;;;;;;5116841;27;20175;-68
2021/08/13 12:18:49;;;;;;;6.67;4.13;;;24.00;99.90;;;;;;5113876;27;20251;-68
2021/08/13 12:21:19;;;;;;;5.80;3.97;;;24.00;99.90;;;;;;5110196;27;20191;-68
2021/08/13 12:23:57;;;;;;;9.53;4.50;;;23.80;99.90;;;;;;5111557;28;20197;-68
2021/08/13 12:26:27;;;;;;;5.43;3.73;;;23.70;99.90;;;;;;5118407;28;20653;-66
2021/08/13 12:28:55;;;;;;;11.20;4.03;;;23.70;99.90;;;;;;5116867;28;20357;-68
2021/08/13 12:31:24;;;;;;;5.67;3.40;;;23.70;99.90;;;;;;5094486;28;20181;-68
2021/08/13 12:33:58;;;;;;;8.50;3.70;;;23.90;99.90;;;;;;5110178;28;20257;-68
2021/08/13 12:36:26;;;;;;;7.10;4.03;;;24.20;99.90;;;;;;5114891;28;20192;-68
2021/08/13 12:38:59;;;;;;;6.50;3.37;;;24.40;99.90;;;;;;5094103;28;20203;-69
2021/08/13 12:41:28;;;;;;;7.77;3.37;;;24.70;99.90;;;;;;5119143;28;20421;-68
2021/08/13 12:43:57;;;;;;;8.40;3.60;;;24.90;99.90;;;;;;5118699;28;20395;-68
2021/08/13 12:46:32;;;;;;;7.37;3.60;;;25.00;99.90;;;;;;5117543;28;20229;-69
2021/08/13 12:49:03;;;;;;;5.37;3.07;;;25.00;99.90;;;;;;5098767;28;20190;-68
2021/08/13 12:51:32;;;;;;;3.47;2.87;;;25.20;99.90;;;;;;5114943;28;21090;-68
2021/08/13 12:54:02;;;;;;;3.70;2.77;;;25.30;99.90;;;;;;5113342;28;20254;-67
2021/08/13 12:56:30;;;;;;;7.57;3.13;;;25.10;99.90;;;;;;5119795;28;20197;-68